createdAt,value
2017-11-16T00:00:52.674Z,99189.03
2017-11-16T00:03:20.198Z,99193.41
2017-11-16T00:05:47.669Z,99193.87
2017-11-16T00:08:15.195Z,99182.57
2017-11-16T00:10:42.692Z,99175.06
2017-11-16T00:13:10.200Z,99182.17
2017-11-16T00:15:37.684Z,99186.75
2017-11-16T00:18:05.187Z,99183.61
2017-11-16T00:20:32.676Z,99175.68
2017-11-16T00:23:00.146Z,99179.05
2017-11-16T00:25:27.630Z,99176.72
2017-11-16T00:27:55.096Z,99168.50
2017-11-16T00:30:22.610Z,99177.05
2017-11-16T00:32:50.090Z,99167.10
2017-11-16T00:35:17.560Z,99166.38
2017-11-16T00:37:45.060Z,99170.00
2017-11-16T00:40:12.523Z,99165.13
2017-11-16T00:42:40.509Z,99170.69
2017-11-16T00:45:07.966Z,99167.49
2017-11-16T00:47:35.437Z,99163.47
2017-11-16T00:50:03.312Z,99165.98
2017-11-16T00:52:30.781Z,99145.93
2017-11-16T00:54:58.246Z,99154.44
2017-11-16T00:57:25.730Z,99150.52
2017-11-16T00:59:53.199Z,99155.06
2017-11-16T01:02:20.678Z,99157.48
2017-11-16T01:04:48.138Z,99153.17
2017-11-16T01:07:15.622Z,99151.55
2017-11-16T01:09:43.117Z,99150.83
2017-11-16T01:12:10.584Z,99154.57
2017-11-16T01:14:38.095Z,99152.70
2017-11-16T01:17:05.559Z,99148.22
2017-11-16T01:19:33.027Z,99148.52
2017-11-16T01:22:00.525Z,99148.67
2017-11-16T01:24:27.991Z,99138.02
2017-11-16T01:26:55.476Z,99139.46
2017-11-16T01:29:22.943Z,99141.45
2017-11-16T01:31:50.655Z,99135.86
2017-11-16T01:34:18.119Z,99133.25
2017-11-16T01:36:45.580Z,99134.20
2017-11-16T01:39:13.064Z,99130.40
2017-11-16T01:41:40.525Z,99131.36
2017-11-16T01:44:08.013Z,99128.52
2017-11-16T01:46:35.474Z,99128.83
2017-11-16T01:49:02.934Z,99133.41
2017-11-16T01:51:30.416Z,99129.28
2017-11-16T01:53:57.879Z,99124.53
2017-11-16T01:56:25.342Z,99128.52
2017-11-16T01:58:52.842Z,99132.81
2017-11-16T02:01:20.322Z,99129.24
2017-11-16T02:03:47.793Z,99126.98
2017-11-16T02:06:15.286Z,99134.23
2017-11-16T02:15:25.919Z,99113.02
2017-11-16T02:17:53.410Z,99115.80
2017-11-16T02:20:20.895Z,99116.53
2017-11-16T02:22:48.371Z,99111.20
2017-11-16T02:25:15.868Z,99117.13
2017-11-16T02:27:43.331Z,99122.59
2017-11-16T02:30:10.799Z,99115.70
2017-11-16T02:32:38.291Z,99115.97
2017-11-16T02:35:05.799Z,99113.77
2017-11-16T02:37:33.291Z,99122.82
2017-11-16T02:40:00.746Z,99118.29
2017-11-16T02:42:28.209Z,99117.72
2017-11-16T02:44:56.038Z,99115.38
2017-11-16T02:47:23.502Z,99119.21
2017-11-16T02:49:50.997Z,99111.16
2017-11-16T02:52:18.489Z,99102.77
2017-11-16T02:54:45.951Z,99101.34
2017-11-16T02:57:13.413Z,99100.22
2017-11-16T02:59:40.898Z,99101.47
2017-11-16T03:02:08.368Z,99100.25
2017-11-16T03:04:35.852Z,99099.91
2017-11-16T03:07:03.319Z,99097.66
2017-11-16T03:09:30.802Z,99102.06
2017-11-16T03:11:58.266Z,99100.93
2017-11-16T03:14:25.749Z,99095.34
2017-11-16T03:16:53.223Z,99097.12
2017-11-16T03:19:20.701Z,99098.32
2017-11-16T03:21:48.198Z,99101.11
2017-11-16T03:24:15.691Z,99099.64
2017-11-16T03:26:43.183Z,99105.05
2017-11-16T03:29:10.641Z,99108.05
2017-11-16T03:31:38.125Z,99101.85
2017-11-16T03:34:05.614Z,99107.93
2017-11-16T03:36:33.075Z,99101.33
2017-11-16T03:39:00.566Z,99115.96
2017-11-16T03:41:28.045Z,99110.89
2017-11-16T03:43:55.554Z,99108.48
2017-11-16T03:46:23.043Z,99109.59
2017-11-16T03:48:50.547Z,99104.52
2017-11-16T03:51:18.038Z,99106.52
2017-11-16T03:53:45.523Z,99102.37
2017-11-16T03:56:13.052Z,99110.16
2017-11-16T03:58:40.522Z,99102.77
2017-11-16T04:01:07.983Z,99100.96
2017-11-16T04:03:35.700Z,99099.15
2017-11-16T04:06:03.182Z,99099.70
2017-11-16T04:08:30.650Z,99106.32
2017-11-16T04:10:58.146Z,99097.73
2017-11-16T04:13:25.631Z,99103.52
2017-11-16T04:15:53.097Z,99102.48
2017-11-16T04:18:20.605Z,99097.08
2017-11-16T04:20:48.100Z,99094.94
2017-11-16T04:23:15.646Z,99085.59
2017-11-16T04:25:43.158Z,99090.05
2017-11-16T04:28:10.635Z,99081.70
2017-11-16T04:30:38.121Z,99077.03
2017-11-16T04:33:05.596Z,99078.31
2017-11-16T04:35:33.101Z,99072.27
2017-11-16T04:38:00.606Z,99063.64
2017-11-16T04:40:28.082Z,99068.03
2017-11-16T04:42:55.566Z,99060.59
2017-11-16T04:45:23.054Z,99056.42
2017-11-16T04:47:50.522Z,99052.33
2017-11-16T04:50:17.977Z,99059.08
2017-11-16T04:52:45.469Z,99057.39
2017-11-16T04:55:12.962Z,99056.97
2017-11-16T04:57:40.428Z,99055.74
2017-11-16T05:00:07.918Z,99061.59
2017-11-16T05:02:35.382Z,99064.14
2017-11-16T05:05:02.870Z,99068.27
2017-11-16T05:07:30.353Z,99058.98
2017-11-16T05:09:57.833Z,99057.39
2017-11-16T05:12:25.479Z,99069.11
2017-11-16T05:14:52.954Z,99071.89
2017-11-16T05:17:20.418Z,99065.94
2017-11-16T05:19:47.908Z,99069.63
2017-11-16T05:22:15.398Z,99069.30
2017-11-16T05:24:42.866Z,99065.10
2017-11-16T05:27:10.339Z,99066.98
2017-11-16T05:29:37.823Z,99071.61
2017-11-16T05:32:05.295Z,99064.17
2017-11-16T05:34:32.787Z,99059.34
2017-11-16T05:37:00.246Z,99062.49
2017-11-16T05:39:27.709Z,99058.03
2017-11-16T05:41:55.195Z,99066.41
2017-11-16T05:44:22.662Z,99073.64
2017-11-16T05:46:50.168Z,99065.62
2017-11-16T05:49:17.643Z,99064.64
2017-11-16T05:51:45.107Z,99059.16
2017-11-16T05:54:12.607Z,99057.83
2017-11-16T05:56:40.099Z,99061.98
2017-11-16T05:59:07.606Z,99062.14
2017-11-16T06:01:35.074Z,99066.84
2017-11-16T06:04:02.543Z,99069.02
2017-11-16T06:06:30.059Z,99071.92
2017-11-16T06:08:57.550Z,99071.06
2017-11-16T06:11:25.061Z,99075.84
2017-11-16T06:13:52.530Z,99073.02
2017-11-16T06:16:20.023Z,99075.17
2017-11-16T06:18:47.498Z,99070.13
2017-11-16T06:21:15.002Z,99069.77
2017-11-16T06:23:42.509Z,99081.20
2017-11-16T06:26:10.013Z,99082.89
2017-11-16T06:28:37.487Z,99080.63
2017-11-16T06:31:04.997Z,99079.52
2017-11-16T06:33:32.459Z,99087.66
2017-11-16T06:35:59.928Z,99092.87
2017-11-16T06:38:27.443Z,99096.96
2017-11-16T06:40:54.953Z,99100.88
2017-11-16T06:43:22.430Z,99097.25
2017-11-16T06:45:49.924Z,99097.86
2017-11-16T06:48:17.425Z,99093.95
2017-11-16T06:50:44.918Z,99090.04
2017-11-16T06:53:12.382Z,99091.41
2017-11-16T06:55:39.853Z,99096.42
2017-11-16T06:58:07.354Z,99100.27
2017-11-16T07:00:34.822Z,99095.67
2017-11-16T07:03:02.307Z,99086.48
2017-11-16T07:05:29.899Z,99098.62
2017-11-16T07:07:57.390Z,99088.99
2017-11-16T07:10:24.866Z,99101.98
2017-11-16T07:12:52.332Z,99087.66
2017-11-16T07:15:19.809Z,99094.67
2017-11-16T07:17:47.272Z,99096.06
2017-11-16T07:20:14.762Z,99101.95
2017-11-16T07:22:42.259Z,99097.74
2017-11-16T07:25:09.726Z,99097.09
2017-11-16T07:27:37.230Z,99093.05
2017-11-16T07:30:04.696Z,99098.52
2017-11-16T07:32:32.163Z,99092.66
2017-11-16T07:34:59.642Z,99100.11
2017-11-16T07:37:27.096Z,99093.13
2017-11-16T07:39:54.586Z,99090.02
2017-11-16T07:42:22.049Z,99091.59
2017-11-16T07:44:49.514Z,99089.03
2017-11-16T07:47:17.008Z,99091.92
2017-11-16T07:49:44.484Z,99091.41
2017-11-16T07:52:11.982Z,99097.66
2017-11-16T07:54:39.437Z,99098.77
2017-11-16T07:57:06.898Z,99090.94
2017-11-16T07:59:34.379Z,99095.11
2017-11-16T08:02:01.843Z,99094.66
2017-11-16T08:04:29.341Z,99088.67
2017-11-16T08:06:56.808Z,99095.66
2017-11-16T08:09:24.311Z,99087.14
2017-11-16T08:11:51.778Z,99086.52
2017-11-16T08:14:19.245Z,99085.45
2017-11-16T08:16:46.900Z,99084.91
2017-11-16T08:19:14.362Z,99082.20
2017-11-16T08:21:41.866Z,99086.86
2017-11-16T08:24:09.333Z,99078.98
2017-11-16T08:26:36.799Z,99077.25
2017-11-16T08:29:04.288Z,99076.30
2017-11-16T08:31:31.743Z,99074.66
2017-11-16T08:33:59.322Z,99078.02
2017-11-16T08:36:26.800Z,99072.67
2017-11-16T08:38:54.273Z,99076.78
2017-11-16T08:41:21.767Z,99070.25
2017-11-16T08:43:49.225Z,99072.45
2017-11-16T08:46:16.727Z,99072.50
2017-11-16T08:48:44.215Z,99067.05
2017-11-16T08:51:11.688Z,99061.35
2017-11-16T08:53:39.174Z,99064.34
2017-11-16T08:56:06.638Z,99059.69
2017-11-16T08:58:34.119Z,99056.97
2017-11-16T09:01:01.611Z,99066.20
2017-11-16T09:03:29.077Z,99064.64
2017-11-16T09:05:56.566Z,99063.33
2017-11-16T09:08:24.039Z,99071.23
2017-11-16T09:10:51.534Z,99070.19
2017-11-16T09:13:19.044Z,99070.25
2017-11-16T09:15:46.501Z,99063.28
2017-11-16T09:18:13.987Z,99061.80
2017-11-16T09:20:41.483Z,99061.31
2017-11-16T09:23:08.935Z,99056.45
2017-11-16T09:25:36.427Z,99053.52
2017-11-16T09:28:03.932Z,99044.84
2017-11-16T09:30:31.435Z,99041.41
2017-11-16T09:32:58.895Z,99029.68
2017-11-16T09:35:26.382Z,99028.27
2017-11-16T09:37:53.860Z,99031.65
2017-11-16T09:40:21.343Z,99026.22
2017-11-16T09:42:48.807Z,99029.69
2017-11-16T09:45:16.266Z,99027.95
2017-11-16T09:47:43.747Z,99021.65
2017-11-16T09:50:11.258Z,99018.67
2017-11-16T09:52:38.726Z,99017.48
2017-11-16T09:55:06.246Z,99009.36
2017-11-16T09:57:33.705Z,99012.30
2017-11-16T10:00:01.175Z,99008.33
2017-11-16T10:02:28.660Z,99009.48
2017-11-16T10:04:56.119Z,99010.52
2017-11-16T10:07:23.598Z,99008.30
2017-11-16T10:09:51.058Z,99002.86
2017-11-16T10:12:18.533Z,98998.75
2017-11-16T10:21:29.289Z,98994.31
2017-11-16T10:23:56.742Z,98991.45
2017-11-16T10:26:24.200Z,98986.55
2017-11-16T10:28:51.675Z,98989.69
2017-11-16T10:31:19.133Z,98983.23
2017-11-16T10:33:46.629Z,98972.58
2017-11-16T10:36:14.078Z,98969.55
2017-11-16T10:38:41.532Z,98963.16
2017-11-16T10:41:09.005Z,98971.22
2017-11-16T10:43:36.469Z,98961.41
2017-11-16T10:46:03.953Z,98955.39
2017-11-16T10:48:31.406Z,98951.89
2017-11-16T10:50:58.865Z,98951.92
2017-11-16T10:53:26.336Z,98945.20
2017-11-16T10:55:53.794Z,98936.80
2017-11-16T10:58:21.285Z,98933.43
2017-11-16T11:00:48.749Z,98928.91
2017-11-16T11:03:16.235Z,98931.72
2017-11-16T11:05:43.722Z,98927.94
2017-11-16T11:08:11.177Z,98927.26
2017-11-16T11:10:38.659Z,98915.83
2017-11-16T11:13:06.132Z,98910.75
2017-11-16T11:15:33.619Z,98907.52
2017-11-16T11:18:01.102Z,98909.83
2017-11-16T11:20:28.559Z,98914.92
2017-11-16T11:22:56.046Z,98918.72
2017-11-16T11:25:23.735Z,98911.89
2017-11-16T11:27:51.207Z,98901.92
2017-11-16T11:30:18.655Z,98903.28
2017-11-16T11:32:46.133Z,98897.99
2017-11-16T11:35:13.596Z,98903.70
2017-11-16T11:37:41.070Z,98900.14
2017-11-16T11:40:09.393Z,98905.97
2017-11-16T11:42:36.897Z,98902.98
2017-11-16T11:45:04.360Z,98906.16
2017-11-16T11:47:31.855Z,98903.82
2017-11-16T11:49:59.319Z,98910.41
2017-11-16T11:52:26.811Z,98913.00
2017-11-16T11:54:54.294Z,98919.70
2017-11-16T11:57:21.755Z,98915.08
2017-11-16T11:59:49.962Z,98909.44
2017-11-16T12:02:17.445Z,98912.38
2017-11-16T12:04:44.920Z,98901.83
2017-11-16T12:07:12.395Z,98897.54
2017-11-16T12:09:40.128Z,98897.60
2017-11-16T12:12:07.624Z,98897.48
2017-11-16T12:14:35.085Z,98903.13
2017-11-16T12:17:02.548Z,98905.92
2017-11-16T12:19:30.055Z,98902.56
2017-11-16T12:21:57.531Z,98910.52
2017-11-16T12:24:25.010Z,98913.25
2017-11-16T12:26:52.464Z,98908.84
2017-11-16T12:29:19.943Z,98907.76
2017-11-16T12:31:47.426Z,98902.12
2017-11-16T12:34:14.917Z,98907.77
2017-11-16T12:36:42.375Z,98902.59
2017-11-16T12:39:09.866Z,98890.78
2017-11-16T12:41:37.448Z,98894.33
2017-11-16T12:44:04.906Z,98890.73
2017-11-16T12:46:32.393Z,98897.98
2017-11-16T12:48:59.886Z,98894.42
2017-11-16T12:51:27.359Z,98896.42
2017-11-16T12:54:00.343Z,98904.20
2017-11-16T12:56:32.641Z,98896.23
2017-11-16T12:59:00.127Z,98893.88
2017-11-16T13:01:27.587Z,98895.41
2017-11-16T13:03:55.083Z,98894.96
2017-11-16T13:06:22.546Z,98896.39
2017-11-16T13:08:50.016Z,98903.53
2017-11-16T13:11:17.494Z,98897.34
2017-11-16T13:13:44.955Z,98898.33
2017-11-16T13:16:12.438Z,98898.08
2017-11-16T13:18:39.930Z,98903.86
2017-11-16T13:21:07.415Z,98890.43
2017-11-16T13:23:34.899Z,98905.30
2017-11-16T13:26:02.383Z,98905.46
2017-11-16T13:28:29.839Z,98899.20
2017-11-16T13:30:57.305Z,98907.52
2017-11-16T13:33:24.786Z,98898.84
2017-11-16T13:35:52.283Z,98902.75
2017-11-16T13:38:19.758Z,98896.91
2017-11-16T13:40:47.234Z,98900.16
2017-11-16T13:43:14.695Z,98899.79
2017-11-16T13:45:42.216Z,98909.70
2017-11-16T13:48:09.667Z,98901.23
2017-11-16T13:50:37.135Z,98906.05
2017-11-16T13:53:04.623Z,98909.73
2017-11-16T13:55:32.123Z,98905.48
2017-11-16T13:57:59.580Z,98908.67
2017-11-16T14:00:27.049Z,98911.63
2017-11-16T14:02:54.514Z,98909.84
2017-11-16T14:05:22.004Z,98906.41
2017-11-16T14:07:49.470Z,98905.08
2017-11-16T14:10:16.959Z,98904.92
2017-11-16T14:12:44.415Z,98905.81
2017-11-16T14:15:11.892Z,98904.65
2017-11-16T14:17:39.350Z,98910.63
2017-11-16T14:20:06.817Z,98911.00
2017-11-16T14:22:34.311Z,98905.94
2017-11-16T14:25:01.791Z,98911.61
2017-11-16T14:27:29.251Z,98909.56
2017-11-16T14:29:56.724Z,98908.09
2017-11-16T14:32:24.520Z,98910.36
2017-11-16T14:34:51.995Z,98911.41
2017-11-16T14:37:19.456Z,98915.53
2017-11-16T14:39:46.947Z,98910.28
2017-11-16T14:42:14.415Z,98916.60
2017-11-16T14:44:41.907Z,98916.92
2017-11-16T14:47:09.372Z,98923.26
2017-11-16T14:49:36.852Z,98921.25
2017-11-16T14:52:04.548Z,98913.91
2017-11-16T14:54:32.011Z,98930.27
2017-11-16T14:56:59.606Z,98921.59
2017-11-16T14:59:27.084Z,98925.41
2017-11-16T15:01:54.554Z,98926.36
2017-11-16T15:04:22.423Z,98930.67
2017-11-16T15:06:49.883Z,98935.53
2017-11-16T15:09:17.348Z,98941.08
2017-11-16T15:11:44.840Z,98935.15
2017-11-16T15:14:12.310Z,98941.36
2017-11-16T15:16:39.803Z,98947.78
2017-11-16T15:19:07.256Z,98940.48
2017-11-16T15:21:34.714Z,98942.14
2017-11-16T15:24:02.200Z,98939.28
2017-11-16T15:26:29.660Z,98948.28
2017-11-16T15:28:57.122Z,98945.60
2017-11-16T15:31:24.599Z,98944.48
2017-11-16T15:33:52.055Z,98952.56
2017-11-16T15:36:19.513Z,98951.70
2017-11-16T15:38:46.989Z,98950.73
2017-11-16T15:41:14.458Z,98954.63
2017-11-16T15:43:41.935Z,98951.78
2017-11-16T15:46:09.390Z,98963.60
2017-11-16T15:48:36.879Z,98962.88
2017-11-16T15:51:04.363Z,98962.92
2017-11-16T15:53:31.830Z,98970.56
2017-11-16T15:55:59.289Z,98970.44
2017-11-16T15:58:26.790Z,98967.47
2017-11-16T16:00:54.303Z,98965.03
2017-11-16T16:03:21.800Z,98968.11
2017-11-16T16:05:49.282Z,98965.52
2017-11-16T16:08:16.751Z,98970.31
2017-11-16T16:10:44.232Z,98977.44
2017-11-16T16:13:11.707Z,98977.30
2017-11-16T16:15:39.170Z,98976.93
2017-11-16T16:18:06.672Z,98978.23
2017-11-16T16:20:34.134Z,98969.05
2017-11-16T16:23:01.625Z,98978.28
2017-11-16T16:25:29.110Z,98977.72
2017-11-16T16:27:56.746Z,98982.90
2017-11-16T16:30:24.240Z,98981.75
2017-11-16T16:32:51.783Z,98982.63
2017-11-16T16:35:19.246Z,98981.34
2017-11-16T16:37:46.742Z,98985.17
2017-11-16T16:40:14.219Z,98979.08
2017-11-16T16:42:41.686Z,98980.90
2017-11-16T16:45:09.176Z,98982.48
2017-11-16T16:47:36.658Z,98989.17
2017-11-16T16:50:04.184Z,98992.88
2017-11-16T16:52:31.706Z,98986.39
2017-11-16T16:55:01.346Z,98979.72
2017-11-16T16:57:30.515Z,98982.17
2017-11-16T16:59:58.084Z,98980.09
2017-11-16T17:02:25.567Z,98987.80
2017-11-16T17:04:53.064Z,98982.84
2017-11-16T17:07:20.538Z,98979.80
2017-11-16T17:09:48.043Z,98979.52
2017-11-16T17:12:15.543Z,98979.02
2017-11-16T17:14:43.002Z,98978.88
2017-11-16T17:17:10.508Z,98987.44
2017-11-16T17:19:37.995Z,98989.84
2017-11-16T17:22:05.452Z,98981.11
2017-11-16T17:24:32.940Z,98990.20
2017-11-16T17:27:00.398Z,98991.50
2017-11-16T17:29:27.868Z,98988.39
2017-11-16T17:31:55.362Z,98985.57
2017-11-16T17:34:22.818Z,98987.02
2017-11-16T17:36:50.313Z,98989.55
2017-11-16T17:39:17.782Z,98992.21
2017-11-16T17:41:45.259Z,98995.45
2017-11-16T17:44:12.730Z,98992.16
2017-11-16T17:46:40.222Z,98998.03
2017-11-16T17:49:07.686Z,98992.41
2017-11-16T17:51:35.155Z,98998.19
2017-11-16T17:54:02.940Z,98995.09
2017-11-16T17:56:30.399Z,98994.16
2017-11-16T17:58:57.860Z,98996.96
2017-11-16T18:01:25.343Z,98996.11
2017-11-16T18:03:52.809Z,99004.91
2017-11-16T18:06:20.588Z,99006.42
2017-11-16T18:08:48.056Z,99002.95
2017-11-16T18:11:15.539Z,99011.36
2017-11-16T18:13:43.044Z,99007.41
2017-11-16T18:16:11.961Z,99005.31
2017-11-16T18:18:39.631Z,99010.03
2017-11-16T18:21:07.224Z,99014.41
2017-11-16T18:23:34.683Z,99017.64
2017-11-16T18:26:03.302Z,99012.74
2017-11-16T18:28:32.616Z,99021.23
2017-11-16T18:31:00.151Z,99014.25
2017-11-16T18:33:27.918Z,99021.11
2017-11-16T18:35:55.383Z,99007.56
2017-11-16T18:38:24.376Z,99016.91
2017-11-16T18:40:52.980Z,99020.74
2017-11-16T18:43:20.442Z,99022.25
2017-11-16T18:45:47.918Z,99020.30
2017-11-16T18:48:15.379Z,99027.08
2017-11-16T18:50:43.867Z,99037.38
2017-11-16T18:53:11.594Z,99033.13
2017-11-16T18:55:39.319Z,99036.44
2017-11-16T18:58:06.793Z,99037.87
2017-11-16T19:00:34.258Z,99036.66
2017-11-16T19:03:01.788Z,99033.50
2017-11-16T19:05:29.264Z,99035.23
2017-11-16T19:07:57.025Z,99027.14
2017-11-16T19:10:24.511Z,99032.23
2017-11-16T19:12:51.971Z,99038.25
2017-11-16T19:15:19.456Z,99044.48
2017-11-16T19:17:46.954Z,99053.63
2017-11-16T19:20:14.458Z,99046.34
2017-11-16T19:22:41.958Z,99042.17
2017-11-16T19:25:10.418Z,99047.67
2017-11-16T19:27:37.898Z,99051.48
2017-11-16T19:30:05.395Z,99056.23
2017-11-16T19:32:32.883Z,99062.22
2017-11-16T19:35:00.355Z,99061.88
2017-11-16T19:37:27.859Z,99064.89
2017-11-16T19:39:55.343Z,99061.50
2017-11-16T19:42:22.815Z,99059.20
2017-11-16T19:44:50.323Z,99062.85
2017-11-16T19:47:17.794Z,99059.21
2017-11-16T19:49:45.285Z,99060.19
2017-11-16T19:52:12.759Z,99068.77
2017-11-16T19:54:40.250Z,99064.94
2017-11-16T19:57:07.963Z,99068.79
2017-11-16T19:59:35.437Z,99070.89
2017-11-16T20:02:02.906Z,99063.41
2017-11-16T20:04:30.391Z,99061.06
2017-11-16T20:06:57.875Z,99066.06
2017-11-16T20:09:25.370Z,99071.37
2017-11-16T20:11:52.830Z,99071.55
2017-11-16T20:14:20.288Z,99070.63
2017-11-16T20:16:47.791Z,99072.34
2017-11-16T20:19:15.262Z,99068.05
2017-11-16T20:21:42.723Z,99073.72
2017-11-16T20:24:10.269Z,99076.36
2017-11-16T20:26:37.745Z,99078.78
2017-11-16T20:29:05.233Z,99080.08
2017-11-16T20:31:32.727Z,99073.17
2017-11-16T20:34:00.183Z,99071.50
2017-11-16T20:36:27.670Z,99078.02
2017-11-16T20:42:05.922Z,99080.27
2017-11-16T20:44:53.337Z,99081.00
2017-11-16T20:50:30.379Z,99080.56
2017-11-16T20:52:57.869Z,99083.66
2017-11-16T20:55:38.136Z,99081.49
2017-11-16T20:58:05.597Z,99091.85
2017-11-16T21:00:33.072Z,99087.59
2017-11-16T21:03:00.563Z,99089.77
2017-11-16T21:05:28.040Z,99088.35
2017-11-16T21:07:55.876Z,99093.21
2017-11-16T21:10:23.373Z,99097.11
2017-11-16T21:12:52.214Z,99091.17
2017-11-16T21:15:19.742Z,99087.72
2017-11-16T21:17:48.011Z,99093.17
2017-11-16T21:20:16.826Z,99090.24
2017-11-16T21:22:44.335Z,99091.80
2017-11-16T21:25:11.828Z,99091.43
2017-11-16T21:27:39.908Z,99096.99
2017-11-16T21:30:07.557Z,99089.27
2017-11-16T21:32:35.050Z,99097.85
2017-11-16T21:35:02.537Z,99098.66
2017-11-16T21:37:30.172Z,99097.85
2017-11-16T21:39:57.689Z,99097.53
2017-11-16T21:42:25.162Z,99098.45
2017-11-16T21:44:52.647Z,99091.80
2017-11-16T21:47:21.814Z,99105.36
2017-11-16T21:56:33.012Z,99109.05
2017-11-16T21:59:00.837Z,99111.16
2017-11-16T22:01:28.306Z,99108.58
2017-11-16T22:03:55.790Z,99112.03
2017-11-16T22:06:23.254Z,99112.08
2017-11-16T22:08:50.739Z,99107.23
2017-11-16T22:11:18.210Z,99107.17
2017-11-16T22:13:45.682Z,99115.97
2017-11-16T22:16:13.166Z,99112.41
2017-11-16T22:18:40.650Z,99110.78
2017-11-16T22:21:08.114Z,99114.30
2017-11-16T22:23:35.604Z,99107.72
2017-11-16T22:26:03.078Z,99118.67
2017-11-16T22:28:30.546Z,99117.44
2017-11-16T22:30:58.026Z,99112.64
2017-11-16T22:33:25.483Z,99115.18
2017-11-16T22:35:52.972Z,99109.63
2017-11-16T22:38:20.438Z,99111.82
2017-11-16T22:40:47.926Z,99108.86
2017-11-16T22:43:15.425Z,99118.36
2017-11-16T22:45:42.894Z,99118.75
2017-11-16T22:48:10.359Z,99117.50
2017-11-16T22:50:37.848Z,99121.48
2017-11-16T22:53:05.321Z,99121.98
2017-11-16T22:55:32.779Z,99123.27
2017-11-16T22:58:00.622Z,99119.39
2017-11-16T23:00:28.079Z,99125.53
2017-11-16T23:02:56.033Z,99132.34
2017-11-16T23:05:23.507Z,99133.69
2017-11-16T23:07:50.967Z,99135.85
2017-11-16T23:10:18.458Z,99128.13
2017-11-16T23:12:45.917Z,99133.20
2017-11-16T23:15:13.397Z,99132.28
2017-11-16T23:17:40.858Z,99130.57
2017-11-16T23:20:08.455Z,99134.06
2017-11-16T23:22:35.927Z,99124.99
2017-11-16T23:25:03.385Z,99131.06
2017-11-16T23:27:30.881Z,99128.83
2017-11-16T23:29:58.387Z,99126.61
2017-11-16T23:32:25.851Z,99130.50
2017-11-16T23:34:53.327Z,99139.09
2017-11-16T23:37:21.132Z,99133.52
2017-11-16T23:39:48.637Z,99135.20
2017-11-16T23:42:16.111Z,99133.05
2017-11-16T23:44:43.595Z,99133.47
2017-11-16T23:47:11.079Z,99141.25
2017-11-16T23:49:38.565Z,99140.00
2017-11-16T23:52:06.052Z,99131.75
2017-11-16T23:54:33.510Z,99132.17
2017-11-16T23:57:01.005Z,99125.59
2017-11-16T23:59:28.491Z,99137.42
